Time;durP1;ratioP1;P1;durP2;ratioP2;P2;SDS_P1;SDS_P2;PMS_P1;PMS_P2;Temp;Humidity;BMP_temperature;BMP_pressure;BME280_temperature;BME280_humidity;BME280_pressure;Samples;Min_cycle;Max_cycle;Signal;HPM_P1;HPM_P2
2023/03/07 00:01:55;;;;;;;;;;;;;;;;;;5113371;28;1975;-72
2023/03/07 00:04:20;;;;;;;;;;;;;;;;;;5111419;28;1229;-72
2023/03/07 00:06:46;;;;;;;;;;;;;;;;;;5113483;28;808;-72
2023/03/07 00:09:11;;;;;;;;;;;;;;;;;;5111241;28;1165;-71
2023/03/07 00:11:36;;;;;;;;;;;;;;;;;;5111952;28;1142;-72
2023/03/07 00:14:05;;;;;;;;;;;;;;;;;;5095095;28;1190;-71
2023/03/07 00:16:30;;;;;;;;;;;;;;;;;;5113382;28;863;-71
2023/03/07 00:18:55;;;;;;;;;;;;;;;;;;5111435;28;1127;-71
2023/03/07 00:21:21;;;;;;;;;;;;;;;;;;5113006;28;1914;-71
2023/03/07 00:23:47;;;;;;;;;;;;;;;;;;5111605;28;1268;-71
2023/03/07 00:26:14;;;;;;;;;;;;;;;;;;5112622;28;836;-71
2023/03/07 00:28:40;;;;;;;;;;;;;;;;;;5113193;28;990;-71
2023/03/07 00:31:06;;;;;;;;;;;;;;;;;;5112921;28;965;-72
2023/03/07 00:33:32;;;;;;;;;;;;;;;;;;5111764;28;919;-72
2023/03/07 00:35:59;;;;;;;;;;;;;;;;;;5111773;28;1152;-72
2023/03/07 00:38:24;;;;;;;;;;;;;;;;;;5111448;28;1205;-72
2023/03/07 00:41:04;;;;;;;;;;;;;;;;;;5111880;28;1913;-71
2023/03/07 00:43:30;;;;;;;;;;;;;;;;;;5112907;28;824;-72
2023/03/07 00:45:56;;;;;;;;;;;;;;;;;;5112795;28;818;-71
2023/03/07 00:48:21;;;;;;;;;;;;;;;;;;5112567;28;900;-71
2023/03/07 00:50:47;;;;;;;;;;;;;;;;;;5111319;28;1063;-72
2023/03/07 00:53:12;;;;;;;;;;;;;;;;;;5112481;28;892;-71
2023/03/07 00:55:37;;;;;;;;;;;;;;;;;;5112334;28;1090;-71
2023/03/07 00:58:03;;;;;;;;;;;;;;;;;;5112324;28;908;-72
2023/03/07 01:00:28;;;;;;;;;;;;;;;;;;5110782;28;1979;-72
2023/03/07 01:02:53;;;;;;;;;;;;;;;;;;5112882;28;824;-72
2023/03/07 01:05:18;;;;;;;;;;;;;;;;;;5112933;28;809;-71
2023/03/07 01:07:44;;;;;;;;;;;;;;;;;;5112747;28;859;-71
2023/03/07 01:10:09;;;;;;;;;;;;;;;;;;5094783;28;1279;-71
2023/03/07 01:12:34;;;;;;;;;;;;;;;;;;5115305;28;1229;-71
2023/03/07 01:15:00;;;;;;;;;;;;;;;;;;5116640;28;927;-71
2023/03/07 01:17:25;;;;;;;;;;;;;;;;;;5098325;28;1217;-71
2023/03/07 01:19:50;;;;;;;;;;;;;;;;;;5116428;28;884;-71
2023/03/07 01:22:15;;;;;;;;;;;;;;;;;;5097661;28;1902;-71
2023/03/07 01:24:41;;;;;;;;;;;;;;;;;;5114921;28;1074;-71
2023/03/07 01:27:07;;;;;;;;;;;;;;;;;;5115154;28;965;-72
2023/03/07 01:29:33;;;;;;;;;;;;;;;;;;5116029;28;938;-72
2023/03/07 01:31:58;;;;;;;;;;;;;;;;;;5116475;28;789;-71
2023/03/07 01:34:23;;;;;;;;;;;;;;;;;;5115983;28;1022;-71
2023/03/07 01:36:49;;;;;;;;;;;;;;;;;;5116409;28;859;-72
2023/03/07 01:39:15;;;;;;;;;;;;;;;;;;5097853;28;1178;-72
2023/03/07 01:41:41;;;;;;;;;;;;;;;;;;5114944;28;1989;-72
2023/03/07 01:44:17;;;;;;;;;;;;;;;;;;5116587;28;890;-72
2023/03/07 01:46:54;;;;;;;;;;;;;;;;;;5114605;28;1265;-71
2023/03/07 01:49:30;;;;;;;;;;;;;;;;;;5116012;28;931;-71
2023/03/07 01:51:59;;;;;;;;;;;;;;;;;;5116077;28;1034;-72
2023/03/07 01:54:25;;;;;;;;;;;;;;;;;;5115806;28;895;-71
2023/03/07 01:56:51;;;;;;;;;;;;;;;;;;5116267;28;1087;-72
2023/03/07 01:59:21;;;;;;;;;;;;;;;;;;5115698;27;982;-72
2023/03/07 02:01:47;;;;;;;;;;;;;;;;;;5115576;28;1906;-72
2023/03/07 02:04:16;;;;;;;;;;;;;;;;;;5115671;28;895;-71
2023/03/07 02:06:41;;;;;;;;;;;;;;;;;;5116080;28;860;-72
2023/03/07 02:09:11;;;;;;;;;;;;;;;;;;5116126;28;935;-71
2023/03/07 02:11:37;;;;;;;;;;;;;;;;;;5115610;28;903;-72
2023/03/07 02:14:03;;;;;;;;;;;;;;;;;;5115574;28;924;-72
2023/03/07 02:16:28;;;;;;;;;;;;;;;;;;5113758;28;1213;-71
2023/03/07 02:18:53;;;;;;;;;;;;;;;;;;5114395;28;903;-72
2023/03/07 02:21:37;;;;;;;;;;;;;;;;;;5114999;28;1960;-72
2023/03/07 02:24:17;;;;;;;;;;;;;;;;;;5113862;28;1271;-71
2023/03/07 02:26:43;;;;;;;;;;;;;;;;;;5113924;28;1209;-72
2023/03/07 02:29:09;;;;;;;;;;;;;;;;;;5113941;28;1185;-72
2023/03/07 02:31:34;;;;;;;;;;;;;;;;;;5115257;28;833;-72
2023/03/07 02:34:00;;;;;;;;;;;;;;;;;;5115594;28;982;-72
2023/03/07 02:36:31;;;;;;;;;;;;;;;;;;5113869;28;1162;-72
2023/03/07 02:38:56;;;;;;;;;;;;;;;;;;5115961;28;840;-72
2023/03/07 02:41:24;;;;;;;;;;;;;;;;;;5115600;28;1913;-72
2023/03/07 02:43:49;;;;;;;;;;;;;;;;;;5115387;28;871;-72
2023/03/07 02:46:14;;;;;;;;;;;;;;;;;;5114077;28;1143;-72
2023/03/07 02:48:39;;;;;;;;;;;;;;;;;;5114890;28;907;-72
2023/03/07 02:51:05;;;;;;;;;;;;;;;;;;5114264;28;1436;-72
2023/03/07 02:53:30;;;;;;;;;;;;;;;;;;5115457;27;1006;-72
2023/03/07 02:55:56;;;;;;;;;;;;;;;;;;5113248;28;1178;-72
2023/03/07 02:58:21;;;;;;;;;;;;;;;;;;5115447;28;847;-72
2023/03/07 03:00:46;;;;;;;;;;;;;;;;;;5114449;28;1910;-72
2023/03/07 03:03:12;;;;;;;;;;;;;;;;;;5113348;28;1242;-72
2023/03/07 03:05:37;;;;;;;;;;;;;;;;;;5114497;28;903;-72
2023/03/07 03:08:02;;;;;;;;;;;;;;;;;;5113772;28;915;-72
2023/03/07 03:10:27;;;;;;;;;;;;;;;;;;5113192;28;1177;-72
2023/03/07 03:12:53;;;;;;;;;;;;;;;;;;5112752;28;1078;-72
2023/03/07 03:15:18;;;;;;;;;;;;;;;;;;5096383;28;1212;-72
2023/03/07 03:17:44;;;;;;;;;;;;;;;;;;5114534;28;797;-72
2023/03/07 03:20:11;;;;;;;;;;;;;;;;;;5114503;28;942;-72
2023/03/07 03:22:40;;;;;;;;;;;;;;;;;;5114341;28;1961;-72
2023/03/07 03:25:09;;;;;;;;;;;;;;;;;;5114456;28;990;-72
2023/03/07 03:27:35;;;;;;;;;;;;;;;;;;5113890;28;990;-72
2023/03/07 03:30:00;;;;;;;;;;;;;;;;;;5112761;28;1177;-72
2023/03/07 03:32:25;;;;;;;;;;;;;;;;;;5112519;28;1253;-72
2023/03/07 03:34:51;;;;;;;;;;;;;;;;;;5111319;28;1356;-72
2023/03/07 03:37:16;;;;;;;;;;;;;;;;;;5114024;28;891;-72
2023/03/07 03:39:41;;;;;;;;;;;;;;;;;;5112324;28;866;-72
2023/03/07 03:42:07;;;;;;;;;;;;;;;;;;5113529;28;1894;-72
2023/03/07 03:44:32;;;;;;;;;;;;;;;;;;5095338;28;1249;-72
2023/03/07 03:46:58;;;;;;;;;;;;;;;;;;5112832;28;1213;-72
2023/03/07 03:49:23;;;;;;;;;;;;;;;;;;5095314;28;1304;-72
2023/03/07 03:51:48;;;;;;;;;;;;;;;;;;5113750;28;969;-72
2023/03/07 03:54:13;;;;;;;;;;;;;;;;;;5112627;28;804;-72
2023/03/07 03:56:39;;;;;;;;;;;;;;;;;;5112033;28;1108;-72
2023/03/07 03:59:04;;;;;;;;;;;;;;;;;;5112566;28;1134;-72
2023/03/07 04:01:29;;;;;;;;;;;;;;;;;;5094838;28;1969;-72
2023/03/07 04:03:55;;;;;;;;;;;;;;;;;;5113925;28;859;-72
2023/03/07 04:06:24;;;;;;;;;;;;;;;;;;5111832;28;1300;-72
2023/03/07 04:08:50;;;;;;;;;;;;;;;;;;5111805;28;1155;-73
2023/03/07 04:11:15;;;;;;;;;;;;;;;;;;5111986;28;1158;-72
2023/03/07 04:13:41;;;;;;;;;;;;;;;;;;5113175;28;757;-72
2023/03/07 04:16:07;;;;;;;;;;;;;;;;;;5113591;28;847;-72
2023/03/07 04:18:32;;;;;;;;;;;;;;;;;;5113227;28;1074;-72
2023/03/07 04:20:58;;;;;;;;;;;;;;;;;;5112944;28;1913;-72
2023/03/07 04:23:23;;;;;;;;;;;;;;;;;;5113554;28;907;-72
2023/03/07 04:25:50;;;;;;;;;;;;;;;;;;5113509;28;812;-72
2023/03/07 04:28:16;;;;;;;;;;;;;;;;;;5113366;28;880;-72
2023/03/07 04:30:41;;;;;;;;;;;;;;;;;;5112326;28;1233;-72
2023/03/07 04:33:07;;;;;;;;;;;;;;;;;;5113307;28;879;-72
2023/03/07 04:35:32;;;;;;;;;;;;;;;;;;5094954;28;1173;-72
2023/03/07 04:37:57;;;;;;;;;;;;;;;;;;5113505;28;891;-72
2023/03/07 04:40:22;;;;;;;;;;;;;;;;;;5111537;28;1284;-72
2023/03/07 04:42:48;;;;;;;;;;;;;;;;;;5111629;28;1963;-72
2023/03/07 04:45:13;;;;;;;;;;;;;;;;;;5114446;28;817;-72
2023/03/07 04:47:38;;;;;;;;;;;;;;;;;;5102106;28;1407;-72
2023/03/07 04:50:04;;;;;;;;;;;;;;;;;;5120415;27;824;-73
2023/03/07 04:52:29;;;;;;;;;;;;;;;;;;5119737;27;1070;-71
2023/03/07 04:54:55;;;;;;;;;;;;;;;;;;5118114;28;1224;-72
2023/03/07 04:57:20;;;;;;;;;;;;;;;;;;5119410;27;1146;-72
2023/03/07 04:59:45;;;;;;;;;;;;;;;;;;5118122;28;1073;-72
2023/03/07 05:02:11;;;;;;;;;;;;;;;;;;5118326;28;1906;-72
2023/03/07 05:04:37;;;;;;;;;;;;;;;;;;5120156;27;935;-72
2023/03/07 05:07:02;;;;;;;;;;;;;;;;;;5118640;28;1247;-72
2023/03/07 05:09:28;;;;;;;;;;;;;;;;;;5120066;27;855;-72
2023/03/07 05:11:53;;;;;;;;;;;;;;;;;;5119659;27;872;-72
2023/03/07 05:14:18;;;;;;;;;;;;;;;;;;5119909;27;989;-72
2023/03/07 05:16:43;;;;;;;;;;;;;;;;;;5100876;28;1338;-72
2023/03/07 05:19:09;;;;;;;;;;;;;;;;;;5119211;27;907;-72
2023/03/07 05:21:34;;;;;;;;;;;;;;;;;;5119767;27;1972;-72
2023/03/07 05:23:59;;;;;;;;;;;;;;;;;;5118726;28;1308;-72
2023/03/07 05:26:25;;;;;;;;;;;;;;;;;;5119881;27;904;-72
2023/03/07 05:28:50;;;;;;;;;;;;;;;;;;5101121;28;1458;-72
2023/03/07 05:31:15;;;;;;;;;;;;;;;;;;5119440;27;1001;-72
2023/03/07 05:33:41;;;;;;;;;;;;;;;;;;5118391;28;967;-72
2023/03/07 05:36:07;;;;;;;;;;;;;;;;;;5119392;27;899;-72
2023/03/07 05:38:32;;;;;;;;;;;;;;;;;;5118077;28;1268;-72
2023/03/07 05:40:57;;;;;;;;;;;;;;;;;;5119355;27;1897;-72
2023/03/07 05:43:22;;;;;;;;;;;;;;;;;;5117820;28;847;-72
2023/03/07 05:45:48;;;;;;;;;;;;;;;;;;5119497;27;847;-72
2023/03/07 05:48:13;;;;;;;;;;;;;;;;;;5119566;27;828;-72
2023/03/07 05:50:38;;;;;;;;;;;;;;;;;;5119153;27;895;-72
2023/03/07 05:53:05;;;;;;;;;;;;;;;;;;5119501;27;947;-72
2023/03/07 05:55:30;;;;;;;;;;;;;;;;;;5117989;28;1195;-72
2023/03/07 05:57:55;;;;;;;;;;;;;;;;;;5114633;28;1244;-72
2023/03/07 06:00:21;;;;;;;;;;;;;;;;;;5115239;28;1260;-72
2023/03/07 06:02:46;;;;;;;;;;;;;;;;;;5114739;28;1902;-72
2023/03/07 06:05:12;;;;;;;;;;;;;;;;;;5116484;28;983;-72
2023/03/07 06:07:37;;;;;;;;;;;;;;;;;;5116845;28;843;-72
2023/03/07 06:10:03;;;;;;;;;;;;;;;;;;5115690;28;998;-72
2023/03/07 06:12:28;;;;;;;;;;;;;;;;;;5115797;27;797;-72
2023/03/07 06:14:53;;;;;;;;;;;;;;;;;;5115152;28;842;-72
2023/03/07 06:17:19;;;;;;;;;;;;;;;;;;5116222;28;974;-72
2023/03/07 06:19:44;;;;;;;;;;;;;;;;;;5115262;28;1253;-72
2023/03/07 06:22:10;;;;;;;;;;;;;;;;;;5114652;28;1977;-72
2023/03/07 06:24:35;;;;;;;;;;;;;;;;;;5116416;27;978;-72
2023/03/07 06:27:01;;;;;;;;;;;;;;;;;;5115856;28;911;-72
2023/03/07 06:29:26;;;;;;;;;;;;;;;;;;5115678;28;919;-71
2023/03/07 06:31:51;;;;;;;;;;;;;;;;;;5116396;28;909;-72
2023/03/07 06:34:17;;;;;;;;;;;;;;;;;;5114973;28;899;-72
2023/03/07 06:36:42;;;;;;;;;;;;;;;;;;5113924;28;1277;-72
2023/03/07 06:39:07;;;;;;;;;;;;;;;;;;5115393;28;845;-72
2023/03/07 06:41:32;;;;;;;;;;;;;;;;;;5116928;28;1953;-72
2023/03/07 06:43:58;;;;;;;;;;;;;;;;;;5115259;28;891;-72
2023/03/07 06:46:23;;;;;;;;;;;;;;;;;;5114242;28;848;-71
2023/03/07 06:48:50;;;;;;;;;;;;;;;;;;5113181;28;1221;-71
2023/03/07 06:51:16;;;;;;;;;;;;;;;;;;5113131;28;1155;-72
2023/03/07 06:53:41;;;;;;;;;;;;;;;;;;5114664;28;900;-72
2023/03/07 06:56:06;;;;;;;;;;;;;;;;;;5112966;28;1376;-72
2023/03/07 06:58:32;;;;;;;;;;;;;;;;;;5113620;28;828;-72
2023/03/07 07:00:57;;;;;;;;;;;;;;;;;;5113275;28;1910;-72
2023/03/07 07:03:22;;;;;;;;;;;;;;;;;;5113584;28;832;-72
2023/03/07 07:05:48;;;;;;;;;;;;;;;;;;5096399;28;1166;-72
2023/03/07 07:08:13;;;;;;;;;;;;;;;;;;5114101;28;817;-71
2023/03/07 07:10:38;;;;;;;;;;;;;;;;;;5112907;28;1326;-72
2023/03/07 07:13:03;;;;;;;;;;;;;;;;;;5113103;28;1186;-72
2023/03/07 07:15:29;;;;;;;;;;;;;;;;;;5113215;28;888;-72
2023/03/07 07:17:55;;;;;;;;;;;;;;;;;;5113219;28;1243;-72
2023/03/07 07:20:20;;;;;;;;;;;;;;;;;;5112740;28;1186;-72
2023/03/07 07:22:45;;;;;;;;;;;;;;;;;;5114574;28;1969;-72
2023/03/07 07:25:11;;;;;;;;;;;;;;;;;;5113131;28;1131;-71
2023/03/07 07:27:36;;;;;;;;;;;;;;;;;;5113059;28;1170;-71
2023/03/07 07:30:03;;;;;;;;;;;;;;;;;;5113080;28;1237;-71
2023/03/07 07:32:28;;;;;;;;;;;;;;;;;;5113924;28;1047;-71
2023/03/07 07:34:54;;;;;;;;;;;;;;;;;;5114352;28;1190;-71
2023/03/07 07:37:19;;;;;;;;;;;;;;;;;;5113747;28;890;-71
2023/03/07 07:39:44;;;;;;;;;;;;;;;;;;5112665;28;1209;-72
2023/03/07 07:42:10;;;;;;;;;;;;;;;;;;5112383;28;1965;-71
2023/03/07 07:44:35;;;;;;;;;;;;;;;;;;5112801;28;1266;-71
2023/03/07 07:47:01;;;;;;;;;;;;;;;;;;5114504;28;955;-71
2023/03/07 07:49:26;;;;;;;;;;;;;;;;;;5114485;28;977;-71
2023/03/07 07:51:51;;;;;;;;;;;;;;;;;;5113044;28;1193;-71
2023/03/07 07:54:17;;;;;;;;;;;;;;;;;;5112980;28;1195;-71
2023/03/07 07:56:42;;;;;;;;;;;;;;;;;;5112798;28;1226;-71
2023/03/07 07:59:07;;;;;;;;;;;;;;;;;;5112973;28;1031;-71
2023/03/07 08:01:32;;;;;;;;;;;;;;;;;;5114213;28;1905;-71
2023/03/07 08:03:58;;;;;;;;;;;;;;;;;;5112144;28;1237;-71
2023/03/07 08:06:25;;;;;;;;;;;;;;;;;;5113693;28;821;-71
2023/03/07 08:08:50;;;;;;;;;;;;;;;;;;5112308;28;1199;-71
2023/03/07 08:11:16;;;;;;;;;;;;;;;;;;5111980;28;1284;-71
2023/03/07 08:13:41;;;;;;;;;;;;;;;;;;5111053;28;1332;-71
2023/03/07 08:16:10;;;;;;;;;;;;;;;;;;5111488;28;1264;-71
2023/03/07 08:18:36;;;;;;;;;;;;;;;;;;5112046;28;1115;-71
2023/03/07 08:21:02;;;;;;;;;;;;;;;;;;5111224;28;1909;-71
2023/03/07 08:23:27;;;;;;;;;;;;;;;;;;5113155;28;841;-71
2023/03/07 08:25:52;;;;;;;;;;;;;;;;;;5112135;28;1122;-71
2023/03/07 08:28:17;;;;;;;;;;;;;;;;;;5111914;28;1205;-71
2023/03/07 08:30:42;;;;;;;;;;;;;;;;;;5113966;28;967;-71
2023/03/07 08:33:08;;;;;;;;;;;;;;;;;;5112183;28;1267;-71
2023/03/07 08:35:33;;;;;;;;;;;;;;;;;;5113848;28;1149;-71
2023/03/07 08:37:59;;;;;;;;;;;;;;;;;;5112055;28;1279;-71
2023/03/07 08:40:25;;;;;;;;;;;;;;;;;;5113080;28;844;-71
2023/03/07 08:42:50;;;;;;;;;;;;;;;;;;5111964;28;1968;-71
2023/03/07 08:45:16;;;;;;;;;;;;;;;;;;5094920;28;1154;-71
2023/03/07 08:47:41;;;;;;;;;;;;;;;;;;5111980;28;864;-71
2023/03/07 08:50:07;;;;;;;;;;;;;;;;;;5112293;28;761;-71
2023/03/07 08:52:32;;;;;;;;;;;;;;;;;;5111722;28;1312;-71
2023/03/07 08:54:57;;;;;;;;;;;;;;;;;;5112121;28;825;-71
2023/03/07 08:57:23;;;;;;;;;;;;;;;;;;5111945;28;1207;-71
2023/03/07 08:59:48;;;;;;;;;;;;;;;;;;5113899;28;832;-71
2023/03/07 09:02:14;;;;;;;;;;;;;;;;;;5112799;28;1909;-71
2023/03/07 09:04:39;;;;;;;;;;;;;;;;;;5113513;28;965;-71
2023/03/07 09:07:04;;;;;;;;;;;;;;;;;;5114009;28;749;-70
2023/03/07 09:09:30;;;;;;;;;;;;;;;;;;5113730;28;828;-71
2023/03/07 09:11:55;;;;;;;;;;;;;;;;;;5114399;28;784;-71
2023/03/07 09:14:20;;;;;;;;;;;;;;;;;;5113268;28;907;-71
2023/03/07 09:16:46;;;;;;;;;;;;;;;;;;5113507;28;880;-71
2023/03/07 09:19:11;;;;;;;;;;;;;;;;;;5112046;28;1033;-70
2023/03/07 09:21:36;;;;;;;;;;;;;;;;;;5094897;28;1971;-71
2023/03/07 09:24:02;;;;;;;;;;;;;;;;;;5112476;28;1133;-71
2023/03/07 09:26:28;;;;;;;;;;;;;;;;;;5113356;28;781;-71
2023/03/07 09:28:53;;;;;;;;;;;;;;;;;;5115122;28;923;-71
2023/03/07 09:31:18;;;;;;;;;;;;;;;;;;5112244;28;1185;-71
2023/03/07 09:33:44;;;;;;;;;;;;;;;;;;5098636;28;1108;-70
2023/03/07 09:36:10;;;;;;;;;;;;;;;;;;5116289;28;879;-71
2023/03/07 09:38:36;;;;;;;;;;;;;;;;;;5114757;28;1229;-71
2023/03/07 09:41:22;;;;;;;;;;;;;;;;;;5115945;28;1908;-71
2023/03/07 09:43:53;;;;;;;;;;;;;;;;;;5108814;28;1132;-71
2023/03/07 09:46:30;;;;;;;;;;;;;;;;;;5116999;28;781;-71
2023/03/07 09:49:04;;;;;;;;;;;;;;;;;;5116855;28;931;-71
2023/03/07 09:51:40;;;;;;;;;;;;;;;;;;5114829;28;1157;-71
2023/03/07 09:54:11;;;;;;;;;;;;;;;;;;5117166;28;923;-71
2023/03/07 09:56:48;;;;;;;;;;;;;;;;;;5116102;28;1154;-71
2023/03/07 09:59:27;;;;;;;;;;;;;;;;;;5115122;28;1047;-70
2023/03/07 10:02:09;;;;;;;;;;;;;;;;;;5115779;28;1917;-70
2023/03/07 10:04:42;;;;;;;;;;;;;;;;;;5117509;28;958;-71
2023/03/07 10:07:08;;;;;;;;;;;;;;;;;;5117542;28;828;-71
2023/03/07 10:09:34;;;;;;;;;;;;;;;;;;5117232;28;951;-71
2023/03/07 10:12:17;;;;;;;;;;;;;;;;;;5117378;28;832;-70
2023/03/07 10:14:48;;;;;;;;;;;;;;;;;;5115756;28;883;-71
2023/03/07 10:17:34;;;;;;;;;;;;;;;;;;5114380;28;1151;-71
2023/03/07 10:20:17;;;;;;;;;;;;;;;;;;5114528;28;1126;-71
2023/03/07 10:22:58;;;;;;;;;;;;;;;;;;5115275;28;1894;-71
2023/03/07 10:25:23;;;;;;;;;;;;;;;;;;5115600;28;758;-71
2023/03/07 10:27:50;;;;;;;;;;;;;;;;;;5115606;28;820;-71
2023/03/07 10:30:17;;;;;;;;;;;;;;;;;;5115737;28;1006;-71
2023/03/07 10:32:45;;;;;;;;;;;;;;;;;;5114168;28;1225;-71
2023/03/07 10:35:10;;;;;;;;;;;;;;;;;;5115357;28;891;-71
2023/03/07 10:37:42;;;;;;;;;;;;;;;;;;5114243;28;1213;-71
2023/03/07 10:40:14;;;;;;;;;;;;;;;;;;5115313;28;855;-72
2023/03/07 10:42:39;;;;;;;;;;;;;;;;;;5114581;28;1898;-71
2023/03/07 10:45:05;;;;;;;;;;;;;;;;;;5114917;28;841;-71
2023/03/07 10:47:30;;;;;;;;;;;;;;;;;;5114065;28;1128;-70
2023/03/07 10:50:14;;;;;;;;;;;;;;;;;;5114136;28;1249;-71
2023/03/07 10:52:45;;;;;;;;;;;;;;;;;;5113675;28;1189;-71
2023/03/07 10:55:29;;;;;;;;;;;;;;;;;;5115485;28;875;-71
2023/03/07 10:58:16;;;;;;;;;;;;;;;;;;5115410;28;1198;-71
2023/03/07 11:00:43;;;;;;;;;;;;;;;;;;5114789;28;1973;-71
2023/03/07 11:03:30;;;;;;;;;;;;;;;;;;5115595;28;816;-71
2023/03/07 11:05:55;;;;;;;;;;;;;;;;;;5113829;28;1161;-71
2023/03/07 11:08:25;;;;;;;;;;;;;;;;;;5114839;28;906;-71
2023/03/07 11:10:50;;;;;;;;;;;;;;;;;;5113341;28;1303;-71
2023/03/07 11:13:16;;;;;;;;;;;;;;;;;;5113024;28;1287;-71
2023/03/07 11:15:43;;;;;;;;;;;;;;;;;;5112812;28;1415;-71
2023/03/07 11:18:28;;;;;;;;;;;;;;;;;;5114244;27;836;-71
2023/03/07 11:20:53;;;;;;;;;;;;;;;;;;5115004;28;1911;-71
2023/03/07 11:23:23;;;;;;;;;;;;;;;;;;5114246;28;907;-71
2023/03/07 11:25:52;;;;;;;;;;;;;;;;;;5114814;28;942;-70
2023/03/07 11:28:24;;;;;;;;;;;;;;;;;;5114537;28;811;-71
2023/03/07 11:30:56;;;;;;;;;;;;;;;;;;5113649;28;839;-71
2023/03/07 11:33:34;;;;;;;;;;;;;;;;;;5112803;28;1189;-71
2023/03/07 11:35:59;;;;;;;;;;;;;;;;;;5112520;28;1165;-71
2023/03/07 11:38:35;;;;;;;;;;;;;;;;;;5113931;28;942;-71
2023/03/07 11:41:10;;;;;;;;;;;;;;;;;;5113768;28;1969;-71
2023/03/07 11:43:41;;;;;;;;;;;;;;;;;;5113435;28;896;-71
2023/03/07 11:46:16;;;;;;;;;;;;;;;;;;5112500;28;1269;-71
2023/03/07 11:48:53;;;;;;;;;;;;;;;;;;5113927;28;922;-71
2023/03/07 11:51:24;;;;;;;;;;;;;;;;;;5113483;28;888;-71
2023/03/07 11:54:10;;;;;;;;;;;;;;;;;;5113419;28;887;-71
2023/03/07 11:56:38;;;;;;;;;;;;;;;;;;5090622;28;1252;-71
2023/03/07 11:59:10;;;;;;;;;;;;;;;;;;5113453;28;963;-71
2023/03/07 12:01:50;;;;;;;;;;;;;;;;;;5113062;28;1914;-70
2023/03/07 12:04:34;;;;;;;;;;;;;;;;;;5113557;28;844;-71
2023/03/07 12:06:59;;;;;;;;;;;;;;;;;;5113608;28;888;-71
2023/03/07 12:09:28;;;;;;;;;;;;;;;;;;5114020;28;923;-71
2023/03/07 12:12:05;;;;;;;;;;;;;;;;;;5113352;28;884;-71
2023/03/07 12:14:30;;;;;;;;;;;;;;;;;;5113151;28;844;-70
2023/03/07 12:17:04;;;;;;;;;;;;;;;;;;5111975;28;1161;-70
2023/03/07 12:19:41;;;;;;;;;;;;;;;;;;5113045;28;918;-70
2023/03/07 12:22:14;;;;;;;;;;;;;;;;;;5113616;28;1970;-71
2023/03/07 12:24:50;;;;;;;;;;;;;;;;;;5111696;28;1102;-70
2023/03/07 12:27:17;;;;;;;;;;;;;;;;;;5104913;28;1242;-70
2023/03/07 12:29:49;;;;;;;;;;;;;;;;;;5099882;28;1055;-70
2023/03/07 12:32:25;;;;;;;;;;;;;;;;;;5109339;28;1135;-70
2023/03/07 12:34:52;;;;;;;;;;;;;;;;;;5112650;28;816;-70
2023/03/07 12:37:23;;;;;;;;;;;;;;;;;;5113019;28;1138;-70
2023/03/07 12:39:49;;;;;;;;;;;;;;;;;;5113206;28;902;-70
2023/03/07 12:42:34;;;;;;;;;;;;;;;;;;5113397;28;1910;-71
2023/03/07 12:45:08;;;;;;;;;;;;;;;;;;5112044;28;1194;-71
2023/03/07 12:47:52;;;;;;;;;;;;;;;;;;5111907;28;1047;-69
2023/03/07 12:50:23;;;;;;;;;;;;;;;;;;5112157;28;1197;-70
2023/03/07 12:52:49;;;;;;;;;;;;;;;;;;5113173;28;1375;-70
2023/03/07 12:55:30;;;;;;;;;;;;;;;;;;5111642;28;880;-70
2023/03/07 12:58:07;;;;;;;;;;;;;;;;;;5109015;28;1227;-71
2023/03/07 13:00:38;;;;;;;;;;;;;;;;;;5109134;28;1375;-70
2023/03/07 13:03:05;;;;;;;;;;;;;;;;;;5110505;28;1901;-70
2023/03/07 13:05:32;;;;;;;;;;;;;;;;;;5108911;28;1217;-71
2023/03/07 13:07:57;;;;;;;;;;;;;;;;;;5114036;28;896;-70
2023/03/07 13:10:23;;;;;;;;;;;;;;;;;;5115333;28;852;-70
2023/03/07 13:12:50;;;;;;;;;;;;;;;;;;5115743;28;879;-70
2023/03/07 13:15:19;;;;;;;;;;;;;;;;;;5116432;28;899;-70
2023/03/07 13:17:45;;;;;;;;;;;;;;;;;;5116255;28;898;-70
2023/03/07 13:20:29;;;;;;;;;;;;;;;;;;5116294;28;835;-70
2023/03/07 13:22:56;;;;;;;;;;;;;;;;;;5115183;28;1909;-70
2023/03/07 13:25:22;;;;;;;;;;;;;;;;;;5114616;28;1174;-70
2023/03/07 13:27:50;;;;;;;;;;;;;;;;;;5114406;28;1543;-70
2023/03/07 13:30:17;;;;;;;;;;;;;;;;;;5114281;28;1336;-71
2023/03/07 13:32:53;;;;;;;;;;;;;;;;;;5115767;28;847;-70
2023/03/07 13:35:24;;;;;;;;;;;;;;;;;;5114560;28;1196;-70
2023/03/07 13:37:51;;;;;;;;;;;;;;;;;;5113633;28;1305;-70
2023/03/07 13:40:24;;;;;;;;;;;;;;;;;;5115813;28;816;-70
2023/03/07 13:42:50;;;;;;;;;;;;;;;;;;5115680;28;1973;-70
2023/03/07 13:45:35;;;;;;;;;;;;;;;;;;5114724;28;1197;-70
2023/03/07 13:48:00;;;;;;;;;;;;;;;;;;5114369;28;1303;-70
2023/03/07 13:50:35;;;;;;;;;;;;;;;;;;5116011;28;824;-70
2023/03/07 13:53:10;;;;;;;;;;;;;;;;;;5115620;28;1039;-71
2023/03/07 13:55:47;;;;;;;;;;;;;;;;;;5115150;28;1175;-71
2023/03/07 13:58:28;;;;;;;;;;;;;;;;;;5115740;28;1378;-70
2023/03/07 14:01:13;;;;;;;;;;;;;;;;;;5115306;28;1906;-71
2023/03/07 14:03:45;;;;;;;;;;;;;;;;;;5082798;28;1329;-71
2023/03/07 14:06:13;;;;;;;;;;;;;;;;;;5115620;28;831;-70
2023/03/07 14:08:39;;;;;;;;;;;;;;;;;;5114286;28;1209;-71
2023/03/07 14:11:12;;;;;;;;;;;;;;;;;;5116188;28;887;-70
2023/03/07 14:13:53;;;;;;;;;;;;;;;;;;5115874;28;943;-70
2023/03/07 14:16:21;;;;;;;;;;;;;;;;;;5115836;28;843;-70
2023/03/07 14:18:46;;;;;;;;;;;;;;;;;;5114913;28;879;-70
2023/03/07 14:21:21;;;;;;;;;;;;;;;;;;5114821;28;1910;-71
2023/03/07 14:24:05;;;;;;;;;;;;;;;;;;5114362;28;1182;-70
2023/03/07 14:26:36;;;;;;;;;;;;;;;;;;5115525;28;904;-71
2023/03/07 14:29:11;;;;;;;;;;;;;;;;;;5113848;28;1165;-70
2023/03/07 14:31:38;;;;;;;;;;;;;;;;;;5115200;28;821;-70
2023/03/07 14:34:22;;;;;;;;;;;;;;;;;;5100307;28;1260;-70
2023/03/07 14:36:49;;;;;;;;;;;;;;;;;;5093279;28;1505;-70
2023/03/07 14:39:14;;;;;;;;;;;;;;;;;;5093336;28;1276;-70
2023/03/07 14:42:09;;;;;;;;;;;;;;;;;;5093278;28;1905;-70
2023/03/07 14:44:58;;;;;;;;;;;;;;;;;;5084360;28;1117;-70
2023/03/07 14:47:23;;;;;;;;;;;;;;;;;;5074593;28;1160;-70
2023/03/07 14:49:51;;;;;;;;;;;;;;;;;;5092598;28;1266;-68
2023/03/07 14:52:19;;;;;;;;;;;;;;;;;;5092804;28;1178;-69
2023/03/07 14:54:45;;;;;;;;;;;;;;;;;;5093530;28;908;-69
2023/03/07 14:57:32;;;;;;;;;;;;;;;;;;5092124;28;1309;-68
2023/03/07 15:00:21;;;;;;;;;;;;;;;;;;5091885;28;1186;-69
2023/03/07 15:02:47;;;;;;;;;;;;;;;;;;5101235;28;1903;-69
2023/03/07 15:05:16;;;;;;;;;;;;;;;;;;5093532;28;1206;-69
2023/03/07 15:07:41;;;;;;;;;;;;;;;;;;5093720;28;903;-69
2023/03/07 15:10:10;;;;;;;;;;;;;;;;;;5075423;28;1231;-68
2023/03/07 15:12:36;;;;;;;;;;;;;;;;;;5092093;28;1277;-68
2023/03/07 15:15:04;;;;;;;;;;;;;;;;;;5075027;28;1389;-69
2023/03/07 15:17:34;;;;;;;;;;;;;;;;;;5093565;28;966;-69
2023/03/07 15:20:06;;;;;;;;;;;;;;;;;;5093457;28;805;-68
2023/03/07 15:22:38;;;;;;;;;;;;;;;;;;5092361;28;1898;-69
2023/03/07 15:25:03;;;;;;;;;;;;;;;;;;5091393;28;1300;-68
2023/03/07 15:27:30;;;;;;;;;;;;;;;;;;5093028;28;657;-69
2023/03/07 15:29:56;;;;;;;;;;;;;;;;;;5092594;28;860;-68
2023/03/07 15:32:29;;;;;;;;;;;;;;;;;;5093315;28;903;-69
2023/03/07 15:35:07;;;;;;;;;;;;;;;;;;5091411;28;1273;-69
2023/03/07 15:37:33;;;;;;;;;;;;;;;;;;5092046;28;1175;-69
2023/03/07 15:39:58;;;;;;;;;;;;;;;;;;5092994;28;805;-68
2023/03/07 15:42:24;;;;;;;;;;;;;;;;;;5093404;28;1962;-69
2023/03/07 15:44:54;;;;;;;;;;;;;;;;;;5091872;28;1181;-69
2023/03/07 15:47:20;;;;;;;;;;;;;;;;;;5091893;28;1214;-69
2023/03/07 15:49:47;;;;;;;;;;;;;;;;;;5093242;28;966;-69
2023/03/07 15:52:27;;;;;;;;;;;;;;;;;;5093627;28;931;-69
2023/03/07 15:54:53;;;;;;;;;;;;;;;;;;5093039;28;792;-69
2023/03/07 15:57:51;;;;;;;;;;;;;;;;;;5092178;28;1135;-69
2023/03/07 16:00:21;;;;;;;;;;;;;;;;;;5069868;28;1246;-69
2023/03/07 16:02:46;;;;;;;;;;;;;;;;;;5093388;28;1973;-69
2023/03/07 16:05:17;;;;;;;;;;;;;;;;;;5091693;28;1357;-69
2023/03/07 16:07:43;;;;;;;;;;;;;;;;;;5093134;28;809;-69
2023/03/07 16:10:08;;;;;;;;;;;;;;;;;;5091288;28;1292;-69
2023/03/07 16:12:34;;;;;;;;;;;;;;;;;;5093503;28;856;-69
2023/03/07 16:15:01;;;;;;;;;;;;;;;;;;5092478;28;903;-69
2023/03/07 16:17:33;;;;;;;;;;;;;;;;;;5091631;28;1186;-69
2023/03/07 16:19:58;;;;;;;;;;;;;;;;;;5091538;28;1197;-69
2023/03/07 16:22:23;;;;;;;;;;;;;;;;;;5091513;28;1969;-68
2023/03/07 16:24:49;;;;;;;;;;;;;;;;;;5091337;28;1158;-69
2023/03/07 16:27:16;;;;;;;;;;;;;;;;;;5092656;28;789;-69
2023/03/07 16:29:42;;;;;;;;;;;;;;;;;;5091533;28;1186;-69
2023/03/07 16:32:17;;;;;;;;;;;;;;;;;;5092999;28;856;-69
2023/03/07 16:34:43;;;;;;;;;;;;;;;;;;5091234;28;831;-69
2023/03/07 16:37:08;;;;;;;;;;;;;;;;;;5091615;28;1478;-69
2023/03/07 16:39:33;;;;;;;;;;;;;;;;;;5091477;28;863;-69
2023/03/07 16:41:59;;;;;;;;;;;;;;;;;;5091809;28;1961;-70
2023/03/07 16:44:24;;;;;;;;;;;;;;;;;;5092709;28;844;-69
2023/03/07 16:46:56;;;;;;;;;;;;;;;;;;5091425;28;1189;-69
2023/03/07 16:49:22;;;;;;;;;;;;;;;;;;5093172;28;991;-69
2023/03/07 16:51:47;;;;;;;;;;;;;;;;;;5092677;28;907;-69
2023/03/07 16:54:12;;;;;;;;;;;;;;;;;;5092608;28;825;-69
2023/03/07 16:56:43;;;;;;;;;;;;;;;;;;5091341;28;866;-69
2023/03/07 16:59:16;;;;;;;;;;;;;;;;;;5090720;28;1384;-69
2023/03/07 17:01:43;;;;;;;;;;;;;;;;;;5092403;28;1969;-69
2023/03/07 17:04:08;;;;;;;;;;;;;;;;;;5092030;28;848;-69
2023/03/07 17:06:34;;;;;;;;;;;;;;;;;;5092110;28;954;-69
2023/03/07 17:08:59;;;;;;;;;;;;;;;;;;5090623;28;852;-69
2023/03/07 17:11:25;;;;;;;;;;;;;;;;;;5092798;28;899;-70
2023/03/07 17:13:56;;;;;;;;;;;;;;;;;;5091101;28;1170;-70
2023/03/07 17:16:22;;;;;;;;;;;;;;;;;;5092687;28;1015;-70
2023/03/07 17:18:48;;;;;;;;;;;;;;;;;;5098582;28;1297;-70